sensor_id;sensor_type;location;lat;lon;timestamp;pressure;altitude;pressure_sealevel;temperature;humidity
33781;BME280;20097;50.832;19.100;2023-05-29T00:02:27;98514.94;;;10.98;100.00
33781;BME280;20097;50.832;19.100;2023-05-29T00:07:32;98511.31;;;10.76;100.00
33781;BME280;20097;50.832;19.100;2023-05-29T00:12:38;98511.63;;;10.73;100.00
33781;BME280;20097;50.832;19.100;2023-05-29T00:17:42;98512.38;;;10.51;100.00
33781;BME280;20097;50.832;19.100;2023-05-29T00:22:47;98523.03;;;10.26;100.00
33781;BME280;20097;50.832;19.100;2023-05-29T00:27:53;98525.00;;;10.08;100.00
33781;BME280;20097;50.832;19.100;2023-05-29T00:32:58;98516.19;;;9.85;100.00
33781;BME280;20097;50.832;19.100;2023-05-29T00:38:04;98514.06;;;9.72;100.00
33781;BME280;20097;50.832;19.100;2023-05-29T00:43:10;98517.31;;;9.66;100.00
33781;BME280;20097;50.832;19.100;2023-05-29T00:48:14;98513.75;;;9.51;100.00
33781;BME280;20097;50.832;19.100;2023-05-29T00:53:19;98511.47;;;9.48;100.00
33781;BME280;20097;50.832;19.100;2023-05-29T00:58:26;98502.97;;;9.46;100.00
33781;BME280;20097;50.832;19.100;2023-05-29T01:03:31;98500.03;;;9.41;100.00
33781;BME280;20097;50.832;19.100;2023-05-29T01:08:38;98492.22;;;9.33;100.00
33781;BME280;20097;50.832;19.100;2023-05-29T01:13:45;98488.44;;;9.27;100.00
33781;BME280;20097;50.832;19.100;2023-05-29T01:18:57;98490.22;;;9.19;100.00
33781;BME280;20097;50.832;19.100;2023-05-29T01:24:15;98493.63;;;9.11;100.00
33781;BME280;20097;50.832;19.100;2023-05-29T01:29:28;98496.72;;;9.07;100.00
33781;BME280;20097;50.832;19.100;2023-05-29T01:34:35;98493.13;;;9.00;100.00
33781;BME280;20097;50.832;19.100;2023-05-29T01:39:40;98491.66;;;8.97;100.00
33781;BME280;20097;50.832;19.100;2023-05-29T01:44:47;98490.16;;;8.87;100.00
33781;BME280;20097;50.832;19.100;2023-05-29T01:49:52;98486.69;;;8.78;100.00
33781;BME280;20097;50.832;19.100;2023-05-29T01:54:57;98483.13;;;8.71;100.00
33781;BME280;20097;50.832;19.100;2023-05-29T02:00:05;98482.75;;;8.66;100.00
33781;BME280;20097;50.832;19.100;2023-05-29T02:05:18;98486.63;;;8.62;100.00
33781;BME280;20097;50.832;19.100;2023-05-29T02:10:23;98478.97;;;8.53;100.00
33781;BME280;20097;50.832;19.100;2023-05-29T02:15:29;98476.16;;;8.46;100.00
33781;BME280;20097;50.832;19.100;2023-05-29T02:20:34;98468.50;;;8.37;100.00
33781;BME280;20097;50.832;19.100;2023-05-29T02:25:38;98476.84;;;8.22;100.00
33781;BME280;20097;50.832;19.100;2023-05-29T02:30:44;98466.75;;;8.19;100.00
33781;BME280;20097;50.832;19.100;2023-05-29T02:35:49;98466.59;;;8.21;100.00
33781;BME280;20097;50.832;19.100;2023-05-29T02:40:53;98470.25;;;8.10;100.00
33781;BME280;20097;50.832;19.100;2023-05-29T02:46:02;98468.66;;;8.09;100.00
33781;BME280;20097;50.832;19.100;2023-05-29T02:51:07;98466.56;;;8.13;100.00
33781;BME280;20097;50.832;19.100;2023-05-29T02:56:12;98474.69;;;8.18;100.00
33781;BME280;20097;50.832;19.100;2023-05-29T03:01:20;98470.06;;;8.04;100.00
33781;BME280;20097;50.832;19.100;2023-05-29T03:06:25;98456.00;;;8.14;100.00
33781;BME280;20097;50.832;19.100;2023-05-29T03:11:29;98462.97;;;8.14;100.00
33781;BME280;20097;50.832;19.100;2023-05-29T03:16:35;98448.34;;;8.13;100.00
33781;BME280;20097;50.832;19.100;2023-05-29T03:21:41;98451.75;;;8.13;100.00
33781;BME280;20097;50.832;19.100;2023-05-29T03:26:46;98451.38;;;8.26;100.00
33781;BME280;20097;50.832;19.100;2023-05-29T03:31:52;98453.34;;;8.32;100.00
33781;BME280;20097;50.832;19.100;2023-05-29T03:37:01;98452.09;;;8.44;100.00
33781;BME280;20097;50.832;19.100;2023-05-29T03:42:07;98455.56;;;8.53;100.00
33781;BME280;20097;50.832;19.100;2023-05-29T03:47:13;98463.72;;;8.66;100.00
33781;BME280;20097;50.832;19.100;2023-05-29T03:52:17;98467.19;;;8.82;100.00
33781;BME280;20097;50.832;19.100;2023-05-29T03:57:23;98474.22;;;8.98;100.00
33781;BME280;20097;50.832;19.100;2023-05-29T04:02:29;98469.09;;;9.14;100.00
33781;BME280;20097;50.832;19.100;2023-05-29T04:07:36;98472.22;;;9.33;100.00
33781;BME280;20097;50.832;19.100;2023-05-29T04:12:41;98469.13;;;9.46;100.00
33781;BME280;20097;50.832;19.100;2023-05-29T04:17:47;98475.16;;;9.70;100.00
33781;BME280;20097;50.832;19.100;2023-05-29T04:22:52;98478.06;;;9.92;100.00
33781;BME280;20097;50.832;19.100;2023-05-29T04:27:57;98490.44;;;10.14;100.00
33781;BME280;20097;50.832;19.100;2023-05-29T04:33:07;98492.34;;;10.36;100.00
33781;BME280;20097;50.832;19.100;2023-05-29T04:38:13;98498.81;;;10.56;100.00
33781;BME280;20097;50.832;19.100;2023-05-29T04:43:17;98501.31;;;10.80;100.00
33781;BME280;20097;50.832;19.100;2023-05-29T04:48:41;98501.84;;;11.06;100.00
33781;BME280;20097;50.832;19.100;2023-05-29T04:53:48;98504.66;;;11.27;100.00
33781;BME280;20097;50.832;19.100;2023-05-29T04:58:53;98510.03;;;11.56;100.00
33781;BME280;20097;50.832;19.100;2023-05-29T05:03:59;98496.47;;;11.83;100.00
33781;BME280;20097;50.832;19.100;2023-05-29T05:09:04;98513.66;;;12.15;100.00
33781;BME280;20097;50.832;19.100;2023-05-29T05:14:09;98519.19;;;12.49;100.00
33781;BME280;20097;50.832;19.100;2023-05-29T05:19:15;98520.38;;;12.76;100.00
33781;BME280;20097;50.832;19.100;2023-05-29T05:24:20;98522.59;;;12.93;100.00
33781;BME280;20097;50.832;19.100;2023-05-29T05:29:24;98522.41;;;13.24;100.00
33781;BME280;20097;50.832;19.100;2023-05-29T05:34:32;98524.88;;;13.46;100.00
33781;BME280;20097;50.832;19.100;2023-05-29T05:39:36;98527.34;;;13.69;100.00
33781;BME280;20097;50.832;19.100;2023-05-29T05:44:41;98528.81;;;13.99;100.00
33781;BME280;20097;50.832;19.100;2023-05-29T05:49:50;98533.03;;;14.21;100.00
33781;BME280;20097;50.832;19.100;2023-05-29T05:54:55;98539.06;;;14.43;100.00
33781;BME280;20097;50.832;19.100;2023-05-29T05:59:59;98537.31;;;14.50;100.00
33781;BME280;20097;50.832;19.100;2023-05-29T06:05:08;98540.91;;;14.76;100.00
33781;BME280;20097;50.832;19.100;2023-05-29T06:10:13;98542.44;;;14.98;98.63
33781;BME280;20097;50.832;19.100;2023-05-29T06:15:17;98539.47;;;15.21;99.46
33781;BME280;20097;50.832;19.100;2023-05-29T06:20:23;98532.75;;;15.53;93.50
33781;BME280;20097;50.832;19.100;2023-05-29T06:25:28;98540.06;;;15.77;93.01
33781;BME280;20097;50.832;19.100;2023-05-29T06:30:36;98540.72;;;16.05;93.80
33781;BME280;20097;50.832;19.100;2023-05-29T06:35:44;98541.94;;;16.15;92.54
33781;BME280;20097;50.832;19.100;2023-05-29T06:40:48;98544.75;;;16.60;91.67
33781;BME280;20097;50.832;19.100;2023-05-29T06:45:53;98554.00;;;16.88;82.10
33781;BME280;20097;50.832;19.100;2023-05-29T06:50:59;98552.75;;;17.10;76.78
33781;BME280;20097;50.832;19.100;2023-05-29T06:56:15;98553.31;;;17.19;74.85
33781;BME280;20097;50.832;19.100;2023-05-29T07:01:20;98553.59;;;17.48;71.88
33781;BME280;20097;50.832;19.100;2023-05-29T07:06:36;98572.16;;;17.73;68.31
33781;BME280;20097;50.832;19.100;2023-05-29T07:11:42;98573.38;;;17.77;67.64
33781;BME280;20097;50.832;19.100;2023-05-29T07:16:47;98572.72;;;17.82;67.96
33781;BME280;20097;50.832;19.100;2023-05-29T07:21:52;98577.63;;;18.09;68.23
33781;BME280;20097;50.832;19.100;2023-05-29T07:26:59;98579.16;;;18.17;66.10
33781;BME280;20097;50.832;19.100;2023-05-29T07:32:04;98577.91;;;18.26;66.49
33781;BME280;20097;50.832;19.100;2023-05-29T07:37:10;98588.34;;;18.45;68.46
33781;BME280;20097;50.832;19.100;2023-05-29T07:42:15;98594.69;;;18.62;65.10
33781;BME280;20097;50.832;19.100;2023-05-29T07:47:20;98596.78;;;18.78;61.86
33781;BME280;20097;50.832;19.100;2023-05-29T07:52:26;98598.97;;;18.63;58.73
33781;BME280;20097;50.832;19.100;2023-05-29T07:57:31;98604.78;;;18.90;57.32
33781;BME280;20097;50.832;19.100;2023-05-29T08:02:37;98601.63;;;18.99;61.26
33781;BME280;20097;50.832;19.100;2023-05-29T08:08:02;98612.34;;;19.29;59.13
33781;BME280;20097;50.832;19.100;2023-05-29T08:13:08;98616.00;;;19.10;56.83
33781;BME280;20097;50.832;19.100;2023-05-29T08:18:14;98613.13;;;19.11;56.10
33781;BME280;20097;50.832;19.100;2023-05-29T08:23:20;98609.91;;;19.46;57.54
33781;BME280;20097;50.832;19.100;2023-05-29T08:28:24;98613.47;;;19.40;54.36
33781;BME280;20097;50.832;19.100;2023-05-29T08:33:29;98609.38;;;19.55;54.90
33781;BME280;20097;50.832;19.100;2023-05-29T08:38:37;98617.63;;;19.65;53.92
33781;BME280;20097;50.832;19.100;2023-05-29T08:43:42;98625.09;;;19.68;49.95
33781;BME280;20097;50.832;19.100;2023-05-29T08:48:49;98615.84;;;19.77;50.28
33781;BME280;20097;50.832;19.100;2023-05-29T08:53:56;98611.22;;;19.84;51.72
33781;BME280;20097;50.832;19.100;2023-05-29T08:59:01;98623.94;;;19.94;53.10
33781;BME280;20097;50.832;19.100;2023-05-29T09:04:28;98619.81;;;20.27;51.25
33781;BME280;20097;50.832;19.100;2023-05-29T09:09:35;98626.63;;;20.05;50.23
33781;BME280;20097;50.832;19.100;2023-05-29T09:14:42;98620.97;;;20.31;51.91
33781;BME280;20097;50.832;19.100;2023-05-29T09:19:49;98613.03;;;20.31;52.34
33781;BME280;20097;50.832;19.100;2023-05-29T09:24:55;98616.81;;;20.24;50.46
33781;BME280;20097;50.832;19.100;2023-05-29T09:30:02;98613.16;;;20.48;51.68
33781;BME280;20097;50.832;19.100;2023-05-29T09:35:07;98629.69;;;20.62;47.95
33781;BME280;20097;50.832;19.100;2023-05-29T09:40:14;98628.16;;;20.54;47.40
33781;BME280;20097;50.832;19.100;2023-05-29T09:45:21;98627.63;;;20.64;48.43
33781;BME280;20097;50.832;19.100;2023-05-29T09:50:27;98617.69;;;20.94;49.37
33781;BME280;20097;50.832;19.100;2023-05-29T09:55:34;98618.97;;;20.91;48.62
33781;BME280;20097;50.832;19.100;2023-05-29T10:00:39;98611.22;;;21.13;48.02
33781;BME280;20097;50.832;19.100;2023-05-29T10:05:49;98617.00;;;21.10;48.55
33781;BME280;20097;50.832;19.100;2023-05-29T10:11:00;98618.44;;;21.40;46.94
33781;BME280;20097;50.832;19.100;2023-05-29T10:16:10;98621.06;;;21.12;47.01
33781;BME280;20097;50.832;19.100;2023-05-29T10:21:15;98621.97;;;21.18;44.97
33781;BME280;20097;50.832;19.100;2023-05-29T10:26:24;98613.78;;;21.08;46.46
33781;BME280;20097;50.832;19.100;2023-05-29T10:31:37;98619.06;;;21.31;46.83
33781;BME280;20097;50.832;19.100;2023-05-29T10:36:56;98618.34;;;21.35;45.71
33781;BME280;20097;50.832;19.100;2023-05-29T10:42:44;98613.59;;;21.89;46.14
33781;BME280;20097;50.832;19.100;2023-05-29T10:47:53;98609.06;;;21.89;43.16
33781;BME280;20097;50.832;19.100;2023-05-29T10:52:58;98604.72;;;22.11;44.63
33781;BME280;20097;50.832;19.100;2023-05-29T10:58:06;98598.75;;;22.21;45.04
33781;BME280;20097;50.832;19.100;2023-05-29T11:03:11;98607.16;;;22.29;42.81
33781;BME280;20097;50.832;19.100;2023-05-29T11:08:29;98614.03;;;22.58;43.02
33781;BME280;20097;50.832;19.100;2023-05-29T11:13:38;98608.19;;;22.45;42.49
33781;BME280;20097;50.832;19.100;2023-05-29T11:18:45;98615.97;;;22.63;40.58
33781;BME280;20097;50.832;19.100;2023-05-29T11:23:51;98617.34;;;23.20;40.79
33781;BME280;20097;50.832;19.100;2023-05-29T11:28:59;98605.47;;;23.71;41.16
33781;BME280;20097;50.832;19.100;2023-05-29T11:34:04;98606.69;;;23.63;42.34
33781;BME280;20097;50.832;19.100;2023-05-29T11:39:09;98605.78;;;23.53;42.50
33781;BME280;20097;50.832;19.100;2023-05-29T11:44:15;98609.09;;;23.86;41.81
33781;BME280;20097;50.832;19.100;2023-05-29T11:49:28;98607.00;;;24.47;41.92
33781;BME280;20097;50.832;19.100;2023-05-29T11:54:34;98608.34;;;24.76;41.23
33781;BME280;20097;50.832;19.100;2023-05-29T11:59:39;98595.06;;;24.54;42.00
33781;BME280;20097;50.832;19.100;2023-05-29T12:04:52;98605.19;;;24.84;39.00
33781;BME280;20097;50.832;19.100;2023-05-29T12:10:11;98595.47;;;24.68;40.13
33781;BME280;20097;50.832;19.100;2023-05-29T12:15:17;98586.59;;;24.62;39.94
33781;BME280;20097;50.832;19.100;2023-05-29T12:20:23;98594.19;;;24.80;39.96
33781;BME280;20097;50.832;19.100;2023-05-29T12:25:33;98587.00;;;25.32;40.39
33781;BME280;20097;50.832;19.100;2023-05-29T12:30:41;98581.69;;;24.49;40.26
33781;BME280;20097;50.832;19.100;2023-05-29T12:35:46;98574.66;;;25.21;40.41
33781;BME280;20097;50.832;19.100;2023-05-29T12:40:51;98572.28;;;25.25;39.30
33781;BME280;20097;50.832;19.100;2023-05-29T12:45:58;98575.81;;;25.35;38.71
33781;BME280;20097;50.832;19.100;2023-05-29T12:51:05;98573.22;;;25.50;38.51
33781;BME280;20097;50.832;19.100;2023-05-29T12:56:11;98568.25;;;25.84;38.65
33781;BME280;20097;50.832;19.100;2023-05-29T13:01:17;98556.50;;;26.20;39.04
33781;BME280;20097;50.832;19.100;2023-05-29T13:06:24;98555.13;;;25.78;37.61
33781;BME280;20097;50.832;19.100;2023-05-29T13:11:29;98557.31;;;26.71;37.48
33781;BME280;20097;50.832;19.100;2023-05-29T13:16:34;98549.88;;;27.42;39.38
33781;BME280;20097;50.832;19.100;2023-05-29T13:21:39;98554.75;;;27.30;36.54
33781;BME280;20097;50.832;19.100;2023-05-29T13:26:50;98539.66;;;26.65;36.94
33781;BME280;20097;50.832;19.100;2023-05-29T13:31:56;98530.78;;;26.84;37.36
33781;BME280;20097;50.832;19.100;2023-05-29T13:37:00;98534.84;;;26.37;36.42
33781;BME280;20097;50.832;19.100;2023-05-29T13:42:06;98528.91;;;26.85;36.50
33781;BME280;20097;50.832;19.100;2023-05-29T13:47:12;98525.78;;;27.37;36.64
33781;BME280;20097;50.832;19.100;2023-05-29T13:52:17;98531.91;;;27.37;35.20
33781;BME280;20097;50.832;19.100;2023-05-29T13:57:21;98511.50;;;28.23;35.75
33781;BME280;20097;50.832;19.100;2023-05-29T14:02:27;98513.69;;;27.83;37.37
33781;BME280;20097;50.832;19.100;2023-05-29T14:07:32;98529.00;;;28.50;34.72
33781;BME280;20097;50.832;19.100;2023-05-29T14:12:36;98532.66;;;28.64;32.95
33781;BME280;20097;50.832;19.100;2023-05-29T14:17:42;98528.34;;;29.15;32.78
33781;BME280;20097;50.832;19.100;2023-05-29T14:22:46;98522.38;;;29.18;33.71
33781;BME280;20097;50.832;19.100;2023-05-29T14:27:51;98512.25;;;29.10;33.35
33781;BME280;20097;50.832;19.100;2023-05-29T14:32:57;98509.63;;;28.81;35.07
33781;BME280;20097;50.832;19.100;2023-05-29T14:38:02;98504.44;;;28.90;33.09
33781;BME280;20097;50.832;19.100;2023-05-29T14:43:07;98502.97;;;28.74;33.59
33781;BME280;20097;50.832;19.100;2023-05-29T14:48:13;98493.16;;;28.36;34.51
33781;BME280;20097;50.832;19.100;2023-05-29T14:53:19;98502.47;;;28.72;32.77
33781;BME280;20097;50.832;19.100;2023-05-29T14:58:25;98501.09;;;28.51;33.22
33781;BME280;20097;50.832;19.100;2023-05-29T15:03:31;98493.00;;;26.81;35.70
33781;BME280;20097;50.832;19.100;2023-05-29T15:08:38;98484.22;;;26.55;35.57
33781;BME280;20097;50.832;19.100;2023-05-29T15:13:44;98485.50;;;26.88;37.05
33781;BME280;20097;50.832;19.100;2023-05-29T15:18:50;98495.94;;;27.48;33.93
33781;BME280;20097;50.832;19.100;2023-05-29T15:23:54;98486.19;;;27.14;34.26
33781;BME280;20097;50.832;19.100;2023-05-29T15:28:59;98481.41;;;27.01;34.55
33781;BME280;20097;50.832;19.100;2023-05-29T15:34:04;98481.47;;;28.21;32.72
33781;BME280;20097;50.832;19.100;2023-05-29T15:39:09;98481.91;;;28.00;33.35
33781;BME280;20097;50.832;19.100;2023-05-29T15:44:13;98481.00;;;28.14;33.00
33781;BME280;20097;50.832;19.100;2023-05-29T15:49:19;98482.06;;;26.67;34.48
33781;BME280;20097;50.832;19.100;2023-05-29T15:54:23;98474.06;;;25.77;35.92
33781;BME280;20097;50.832;19.100;2023-05-29T15:59:28;98473.41;;;25.25;35.28
33781;BME280;20097;50.832;19.100;2023-05-29T16:04:33;98474.19;;;24.59;37.40
33781;BME280;20097;50.832;19.100;2023-05-29T16:09:38;98475.25;;;23.89;36.99
33781;BME280;20097;50.832;19.100;2023-05-29T16:14:44;98467.38;;;23.68;39.56
33781;BME280;20097;50.832;19.100;2023-05-29T16:19:49;98473.63;;;23.83;37.48
33781;BME280;20097;50.832;19.100;2023-05-29T16:24:58;98458.75;;;23.61;38.39
33781;BME280;20097;50.832;19.100;2023-05-29T16:30:03;98465.66;;;23.30;38.00
33781;BME280;20097;50.832;19.100;2023-05-29T16:35:09;98470.59;;;23.22;39.92
33781;BME280;20097;50.832;19.100;2023-05-29T16:40:14;98474.19;;;22.67;41.07
33781;BME280;20097;50.832;19.100;2023-05-29T16:45:20;98457.53;;;22.55;44.50
33781;BME280;20097;50.832;19.100;2023-05-29T16:50:26;98457.22;;;22.35;44.66
33781;BME280;20097;50.832;19.100;2023-05-29T16:55:31;98448.59;;;22.28;43.96
33781;BME280;20097;50.832;19.100;2023-05-29T17:00:35;98449.59;;;22.22;44.59
33781;BME280;20097;50.832;19.100;2023-05-29T17:05:41;98447.19;;;22.04;44.88
33781;BME280;20097;50.832;19.100;2023-05-29T17:10:48;98451.84;;;21.97;45.21
33781;BME280;20097;50.832;19.100;2023-05-29T17:15:53;98440.63;;;21.62;45.26
33781;BME280;20097;50.832;19.100;2023-05-29T17:21:00;98439.25;;;21.43;45.62
33781;BME280;20097;50.832;19.100;2023-05-29T17:26:04;98440.03;;;21.27;46.65
33781;BME280;20097;50.832;19.100;2023-05-29T17:31:09;98431.91;;;21.05;47.94
33781;BME280;20097;50.832;19.100;2023-05-29T17:36:17;98414.72;;;20.57;50.23
33781;BME280;20097;50.832;19.100;2023-05-29T17:41:22;98408.44;;;20.23;52.75
33781;BME280;20097;50.832;19.100;2023-05-29T17:46:26;98403.69;;;19.90;54.30
33781;BME280;20097;50.832;19.100;2023-05-29T17:51:32;98400.44;;;19.54;57.74
33781;BME280;20097;50.832;19.100;2023-05-29T17:56:37;98404.41;;;19.33;58.75
33781;BME280;20097;50.832;19.100;2023-05-29T18:01:41;98410.72;;;19.02;60.21
33781;BME280;20097;50.832;19.100;2023-05-29T18:06:47;98416.81;;;18.73;61.92
33781;BME280;20097;50.832;19.100;2023-05-29T18:11:52;98422.19;;;18.49;62.96
33781;BME280;20097;50.832;19.100;2023-05-29T18:16:59;98418.16;;;18.22;64.38
33781;BME280;20097;50.832;19.100;2023-05-29T18:22:05;98423.63;;;18.02;65.09
33781;BME280;20097;50.832;19.100;2023-05-29T18:27:10;98419.50;;;17.63;66.79
33781;BME280;20097;50.832;19.100;2023-05-29T18:32:14;98427.59;;;17.37;67.74
33781;BME280;20097;50.832;19.100;2023-05-29T18:37:20;98425.63;;;17.26;69.19
33781;BME280;20097;50.832;19.100;2023-05-29T18:42:25;98427.78;;;17.05;70.11
33781;BME280;20097;50.832;19.100;2023-05-29T18:47:29;98442.31;;;16.83;72.31
33781;BME280;20097;50.832;19.100;2023-05-29T18:52:35;98443.97;;;16.64;73.51
33781;BME280;20097;50.832;19.100;2023-05-29T18:57:40;98443.97;;;16.64;75.33
33781;BME280;20097;50.832;19.100;2023-05-29T19:02:49;98445.69;;;16.26;79.47
33781;BME280;20097;50.832;19.100;2023-05-29T19:07:57;98454.81;;;15.97;79.27
33781;BME280;20097;50.832;19.100;2023-05-29T19:13:03;98458.69;;;15.75;82.00
33781;BME280;20097;50.832;19.100;2023-05-29T19:18:09;98458.47;;;15.70;83.66
33781;BME280;20097;50.832;19.100;2023-05-29T19:23:15;98466.56;;;15.43;85.31
33781;BME280;20097;50.832;19.100;2023-05-29T19:28:19;98467.69;;;15.34;85.24
33781;BME280;20097;50.832;19.100;2023-05-29T19:33:24;98476.16;;;15.16;84.24
33781;BME280;20097;50.832;19.100;2023-05-29T19:38:30;98472.28;;;15.05;84.45
33781;BME280;20097;50.832;19.100;2023-05-29T19:43:34;98485.97;;;14.81;88.83
33781;BME280;20097;50.832;19.100;2023-05-29T19:48:39;98477.19;;;14.68;88.20
33781;BME280;20097;50.832;19.100;2023-05-29T19:53:45;98482.16;;;14.50;89.77
33781;BME280;20097;50.832;19.100;2023-05-29T19:58:50;98495.38;;;14.35;93.42
33781;BME280;20097;50.832;19.100;2023-05-29T20:03:54;98503.69;;;14.39;97.50
33781;BME280;20097;50.832;19.100;2023-05-29T20:09:00;98518.53;;;14.53;95.97
33781;BME280;20097;50.832;19.100;2023-05-29T20:14:04;98509.66;;;14.60;89.23
33781;BME280;20097;50.832;19.100;2023-05-29T20:19:09;98517.34;;;14.55;98.34
33781;BME280;20097;50.832;19.100;2023-05-29T20:24:15;98518.41;;;14.33;98.83
33781;BME280;20097;50.832;19.100;2023-05-29T20:29:19;98520.50;;;14.23;99.27
33781;BME280;20097;50.832;19.100;2023-05-29T20:34:24;98521.09;;;14.19;100.00
33781;BME280;20097;50.832;19.100;2023-05-29T20:39:30;98518.88;;;13.95;100.00
33781;BME280;20097;50.832;19.100;2023-05-29T20:44:38;98514.59;;;13.87;100.00
33781;BME280;20097;50.832;19.100;2023-05-29T20:49:42;98520.31;;;13.76;100.00
33781;BME280;20097;50.832;19.100;2023-05-29T20:54:48;98511.91;;;13.59;100.00
33781;BME280;20097;50.832;19.100;2023-05-29T20:59:53;98507.84;;;13.57;100.00
33781;BME280;20097;50.832;19.100;2023-05-29T21:04:58;98519.66;;;13.46;100.00
33781;BME280;20097;50.832;19.100;2023-05-29T21:10:05;98520.44;;;13.47;100.00
33781;BME280;20097;50.832;19.100;2023-05-29T21:15:10;98520.69;;;13.52;100.00
33781;BME280;20097;50.832;19.100;2023-05-29T21:20:17;98521.84;;;13.64;100.00
33781;BME280;20097;50.832;19.100;2023-05-29T21:25:22;98519.22;;;13.64;100.00
33781;BME280;20097;50.832;19.100;2023-05-29T21:30:26;98516.22;;;13.67;100.00
33781;BME280;20097;50.832;19.100;2023-05-29T21:35:31;98520.81;;;13.65;100.00
33781;BME280;20097;50.832;19.100;2023-05-29T21:40:37;98517.75;;;13.61;100.00
33781;BME280;20097;50.832;19.100;2023-05-29T21:45:41;98513.28;;;13.55;100.00
33781;BME280;20097;50.832;19.100;2023-05-29T21:50:47;98510.97;;;13.46;100.00
33781;BME280;20097;50.832;19.100;2023-05-29T21:55:52;98514.50;;;13.38;100.00
33781;BME280;20097;50.832;19.100;2023-05-29T22:00:58;98504.81;;;13.39;100.00
33781;BME280;20097;50.832;19.100;2023-05-29T22:06:04;98509.44;;;13.37;100.00
33781;BME280;20097;50.832;19.100;2023-05-29T22:11:10;98509.19;;;13.32;100.00
33781;BME280;20097;50.832;19.100;2023-05-29T22:16:14;98510.56;;;13.28;100.00
33781;BME280;20097;50.832;19.100;2023-05-29T22:21:20;98504.50;;;13.27;100.00
33781;BME280;20097;50.832;19.100;2023-05-29T22:26:28;98500.06;;;13.28;100.00
33781;BME280;20097;50.832;19.100;2023-05-29T22:31:34;98512.72;;;13.24;100.00
33781;BME280;20097;50.832;19.100;2023-05-29T22:36:38;98512.91;;;13.23;100.00
33781;BME280;20097;50.832;19.100;2023-05-29T22:41:45;98510.31;;;13.23;100.00
33781;BME280;20097;50.832;19.100;2023-05-29T22:46:50;98511.50;;;13.20;100.00
33781;BME280;20097;50.832;19.100;2023-05-29T22:51:54;98512.03;;;13.16;100.00
33781;BME280;20097;50.832;19.100;2023-05-29T22:57:00;98510.78;;;13.12;100.00
33781;BME280;20097;50.832;19.100;2023-05-29T23:02:06;98507.53;;;13.10;100.00
33781;BME280;20097;50.832;19.100;2023-05-29T23:07:10;98509.69;;;13.06;100.00
33781;BME280;20097;50.832;19.100;2023-05-29T23:12:16;98502.03;;;13.05;100.00
33781;BME280;20097;50.832;19.100;2023-05-29T23:17:21;98508.94;;;12.98;100.00
33781;BME280;20097;50.832;19.100;2023-05-29T23:22:25;98509.50;;;12.93;100.00
33781;BME280;20097;50.832;19.100;2023-05-29T23:27:31;98506.97;;;13.00;100.00
33781;BME280;20097;50.832;19.100;2023-05-29T23:32:35;98502.03;;;13.05;100.00
33781;BME280;20097;50.832;19.100;2023-05-29T23:37:40;98504.84;;;13.03;100.00
33781;BME280;20097;50.832;19.100;2023-05-29T23:42:47;98501.84;;;13.06;100.00
33781;BME280;20097;50.832;19.100;2023-05-29T23:47:51;98498.44;;;13.06;100.00
33781;BME280;20097;50.832;19.100;2023-05-29T23:52:56;98492.56;;;13.04;100.00
33781;BME280;20097;50.832;19.100;2023-05-29T23:58:02;98501.28;;;12.96;100.00
